sensor_id;sensor_type;location;lat;lon;timestamp;temperature;humidity
17348;DHT22;8791;50.876;4.342;2022-09-09T00:01:44;16.00;99.90
17348;DHT22;8791;50.876;4.342;2022-09-09T00:04:17;16.00;99.90
17348;DHT22;8791;50.876;4.342;2022-09-09T00:06:55;15.90;99.90
17348;DHT22;8791;50.876;4.342;2022-09-09T00:09:26;15.90;99.90
17348;DHT22;8791;50.876;4.342;2022-09-09T00:11:56;16.00;99.90
17348;DHT22;8791;50.876;4.342;2022-09-09T00:14:37;15.90;99.90
17348;DHT22;8791;50.876;4.342;2022-09-09T00:17:09;15.80;99.90
17348;DHT22;8791;50.876;4.342;2022-09-09T00:19:41;15.80;99.90
17348;DHT22;8791;50.876;4.342;2022-09-09T00:22:16;15.80;99.90
17348;DHT22;8791;50.876;4.342;2022-09-09T00:24:45;15.80;99.90
17348;DHT22;8791;50.876;4.342;2022-09-09T00:27:18;15.80;99.90
17348;DHT22;8791;50.876;4.342;2022-09-09T00:29:51;15.90;99.90
17348;DHT22;8791;50.876;4.342;2022-09-09T00:32:20;16.00;99.90
17348;DHT22;8791;50.876;4.342;2022-09-09T00:34:49;15.90;99.90
17348;DHT22;8791;50.876;4.342;2022-09-09T00:37:19;16.00;99.90
17348;DHT22;8791;50.876;4.342;2022-09-09T00:39:46;15.90;99.90
17348;DHT22;8791;50.876;4.342;2022-09-09T00:42:15;15.90;99.90
17348;DHT22;8791;50.876;4.342;2022-09-09T00:44:53;16.00;99.90
17348;DHT22;8791;50.876;4.342;2022-09-09T00:47:34;16.00;99.90
17348;DHT22;8791;50.876;4.342;2022-09-09T00:50:15;16.00;99.90
17348;DHT22;8791;50.876;4.342;2022-09-09T00:52:47;16.00;99.90
17348;DHT22;8791;50.876;4.342;2022-09-09T00:55:23;16.00;99.90
17348;DHT22;8791;50.876;4.342;2022-09-09T00:57:53;16.00;99.90
17348;DHT22;8791;50.876;4.342;2022-09-09T01:00:24;16.00;99.90
17348;DHT22;8791;50.876;4.342;2022-09-09T01:05:54;15.90;99.90
17348;DHT22;8791;50.876;4.342;2022-09-09T01:08:58;15.90;99.90
17348;DHT22;8791;50.876;4.342;2022-09-09T01:11:33;15.80;99.90
17348;DHT22;8791;50.876;4.342;2022-09-09T01:14:14;15.90;99.90
17348;DHT22;8791;50.876;4.342;2022-09-09T01:16:45;15.90;99.90
17348;DHT22;8791;50.876;4.342;2022-09-09T01:19:20;15.90;99.90
17348;DHT22;8791;50.876;4.342;2022-09-09T01:22:00;16.00;99.90
17348;DHT22;8791;50.876;4.342;2022-09-09T01:24:35;16.00;99.90
17348;DHT22;8791;50.876;4.342;2022-09-09T01:27:06;16.00;99.90
17348;DHT22;8791;50.876;4.342;2022-09-09T01:29:34;15.90;99.90
17348;DHT22;8791;50.876;4.342;2022-09-09T01:32:03;16.00;99.90
17348;DHT22;8791;50.876;4.342;2022-09-09T01:34:50;16.00;99.90
17348;DHT22;8791;50.876;4.342;2022-09-09T01:37:17;15.90;99.90
17348;DHT22;8791;50.876;4.342;2022-09-09T01:39:44;16.00;99.90
17348;DHT22;8791;50.876;4.342;2022-09-09T01:42:15;15.90;99.90
17348;DHT22;8791;50.876;4.342;2022-09-09T01:44:42;15.90;99.90
17348;DHT22;8791;50.876;4.342;2022-09-09T01:47:09;16.00;99.90
17348;DHT22;8791;50.876;4.342;2022-09-09T01:49:36;16.00;99.90
17348;DHT22;8791;50.876;4.342;2022-09-09T01:52:03;16.10;99.90
17348;DHT22;8791;50.876;4.342;2022-09-09T01:54:31;16.10;99.90
17348;DHT22;8791;50.876;4.342;2022-09-09T01:57:08;16.10;99.90
17348;DHT22;8791;50.876;4.342;2022-09-09T01:59:48;16.10;99.90
17348;DHT22;8791;50.876;4.342;2022-09-09T02:02:18;16.00;99.90
17348;DHT22;8791;50.876;4.342;2022-09-09T02:04:49;15.90;99.90
17348;DHT22;8791;50.876;4.342;2022-09-09T02:07:31;15.80;99.90
17348;DHT22;8791;50.876;4.342;2022-09-09T02:10:05;15.90;99.90
17348;DHT22;8791;50.876;4.342;2022-09-09T02:12:36;15.90;99.90
17348;DHT22;8791;50.876;4.342;2022-09-09T02:15:13;15.90;99.90
17348;DHT22;8791;50.876;4.342;2022-09-09T02:17:42;15.90;99.90
17348;DHT22;8791;50.876;4.342;2022-09-09T02:20:13;15.90;99.90
17348;DHT22;8791;50.876;4.342;2022-09-09T02:22:43;15.90;99.90
17348;DHT22;8791;50.876;4.342;2022-09-09T02:25:13;15.90;99.90
17348;DHT22;8791;50.876;4.342;2022-09-09T02:27:43;16.00;99.90
17348;DHT22;8791;50.876;4.342;2022-09-09T02:30:13;16.10;99.90
17348;DHT22;8791;50.876;4.342;2022-09-09T02:32:42;16.10;99.90
17348;DHT22;8791;50.876;4.342;2022-09-09T02:35:12;16.10;99.90
17348;DHT22;8791;50.876;4.342;2022-09-09T02:37:42;16.10;99.90
17348;DHT22;8791;50.876;4.342;2022-09-09T02:40:12;16.10;99.90
17348;DHT22;8791;50.876;4.342;2022-09-09T02:42:42;16.10;99.90
17348;DHT22;8791;50.876;4.342;2022-09-09T02:45:11;16.10;99.90
17348;DHT22;8791;50.876;4.342;2022-09-09T02:47:44;16.10;99.90
17348;DHT22;8791;50.876;4.342;2022-09-09T02:50:18;16.10;99.90
17348;DHT22;8791;50.876;4.342;2022-09-09T02:52:56;16.20;99.90
17348;DHT22;8791;50.876;4.342;2022-09-09T02:55:38;16.20;99.90
17348;DHT22;8791;50.876;4.342;2022-09-09T02:58:07;16.10;99.90
17348;DHT22;8791;50.876;4.342;2022-09-09T03:00:35;16.00;99.90
17348;DHT22;8791;50.876;4.342;2022-09-09T03:03:04;16.00;99.90
17348;DHT22;8791;50.876;4.342;2022-09-09T03:05:31;16.10;99.90
17348;DHT22;8791;50.876;4.342;2022-09-09T03:07:58;16.10;99.90
17348;DHT22;8791;50.876;4.342;2022-09-09T03:10:25;16.10;99.90
17348;DHT22;8791;50.876;4.342;2022-09-09T03:12:52;16.00;99.90
17348;DHT22;8791;50.876;4.342;2022-09-09T03:15:20;16.00;99.90
17348;DHT22;8791;50.876;4.342;2022-09-09T03:17:47;16.00;99.90
17348;DHT22;8791;50.876;4.342;2022-09-09T03:20:15;16.00;99.90
17348;DHT22;8791;50.876;4.342;2022-09-09T03:22:42;16.00;99.90
17348;DHT22;8791;50.876;4.342;2022-09-09T03:25:10;15.90;99.90
17348;DHT22;8791;50.876;4.342;2022-09-09T03:27:37;15.90;99.90
17348;DHT22;8791;50.876;4.342;2022-09-09T03:30:04;15.90;99.90
17348;DHT22;8791;50.876;4.342;2022-09-09T03:32:31;15.90;99.90
17348;DHT22;8791;50.876;4.342;2022-09-09T03:34:58;15.90;99.90
17348;DHT22;8791;50.876;4.342;2022-09-09T03:37:26;15.90;99.90
17348;DHT22;8791;50.876;4.342;2022-09-09T03:39:53;15.90;99.90
17348;DHT22;8791;50.876;4.342;2022-09-09T03:42:21;16.00;99.90
17348;DHT22;8791;50.876;4.342;2022-09-09T03:44:48;16.00;99.90
17348;DHT22;8791;50.876;4.342;2022-09-09T03:47:17;16.00;99.90
17348;DHT22;8791;50.876;4.342;2022-09-09T03:49:44;16.00;99.90
17348;DHT22;8791;50.876;4.342;2022-09-09T03:52:11;16.00;99.90
17348;DHT22;8791;50.876;4.342;2022-09-09T03:54:40;16.00;99.90
17348;DHT22;8791;50.876;4.342;2022-09-09T03:57:08;16.10;99.90
17348;DHT22;8791;50.876;4.342;2022-09-09T03:59:35;16.10;99.90
17348;DHT22;8791;50.876;4.342;2022-09-09T04:02:02;16.00;99.90
17348;DHT22;8791;50.876;4.342;2022-09-09T04:04:29;15.90;99.90
17348;DHT22;8791;50.876;4.342;2022-09-09T04:06:56;15.90;99.90
17348;DHT22;8791;50.876;4.342;2022-09-09T04:09:23;16.00;99.90
17348;DHT22;8791;50.876;4.342;2022-09-09T04:11:51;16.00;99.90
17348;DHT22;8791;50.876;4.342;2022-09-09T04:14:19;16.00;99.90
17348;DHT22;8791;50.876;4.342;2022-09-09T04:16:46;16.00;99.90
17348;DHT22;8791;50.876;4.342;2022-09-09T04:19:13;16.00;99.90
17348;DHT22;8791;50.876;4.342;2022-09-09T04:21:40;16.00;99.90
17348;DHT22;8791;50.876;4.342;2022-09-09T04:24:07;15.90;99.90
17348;DHT22;8791;50.876;4.342;2022-09-09T04:26:34;15.90;99.90
17348;DHT22;8791;50.876;4.342;2022-09-09T04:29:03;15.90;99.90
17348;DHT22;8791;50.876;4.342;2022-09-09T04:31:31;15.90;99.90
17348;DHT22;8791;50.876;4.342;2022-09-09T04:33:58;15.90;99.90
17348;DHT22;8791;50.876;4.342;2022-09-09T04:36:27;15.90;99.90
17348;DHT22;8791;50.876;4.342;2022-09-09T04:38:54;15.90;99.90
17348;DHT22;8791;50.876;4.342;2022-09-09T04:41:21;15.90;99.90
17348;DHT22;8791;50.876;4.342;2022-09-09T04:43:48;15.90;99.90
17348;DHT22;8791;50.876;4.342;2022-09-09T04:46:16;16.00;99.90
17348;DHT22;8791;50.876;4.342;2022-09-09T04:48:43;15.90;99.90
17348;DHT22;8791;50.876;4.342;2022-09-09T04:51:12;15.90;99.90
17348;DHT22;8791;50.876;4.342;2022-09-09T04:53:39;15.90;99.90
17348;DHT22;8791;50.876;4.342;2022-09-09T04:56:08;16.00;99.90
17348;DHT22;8791;50.876;4.342;2022-09-09T04:58:36;16.00;99.90
17348;DHT22;8791;50.876;4.342;2022-09-09T05:01:05;16.00;99.90
17348;DHT22;8791;50.876;4.342;2022-09-09T05:03:33;15.90;99.90
17348;DHT22;8791;50.876;4.342;2022-09-09T05:06:05;15.90;99.90
17348;DHT22;8791;50.876;4.342;2022-09-09T05:08:33;15.80;99.90
17348;DHT22;8791;50.876;4.342;2022-09-09T05:11:00;15.80;99.90
17348;DHT22;8791;50.876;4.342;2022-09-09T05:13:28;15.80;99.90
17348;DHT22;8791;50.876;4.342;2022-09-09T05:15:56;15.80;99.90
17348;DHT22;8791;50.876;4.342;2022-09-09T05:18:23;15.80;99.90
17348;DHT22;8791;50.876;4.342;2022-09-09T05:20:51;15.80;99.90
17348;DHT22;8791;50.876;4.342;2022-09-09T05:23:18;16.00;99.90
17348;DHT22;8791;50.876;4.342;2022-09-09T05:25:54;15.90;99.90
17348;DHT22;8791;50.876;4.342;2022-09-09T05:28:22;16.00;99.90
17348;DHT22;8791;50.876;4.342;2022-09-09T05:30:55;16.00;99.90
17348;DHT22;8791;50.876;4.342;2022-09-09T05:33:23;16.10;99.90
17348;DHT22;8791;50.876;4.342;2022-09-09T05:35:59;16.10;99.90
17348;DHT22;8791;50.876;4.342;2022-09-09T05:38:27;16.10;99.90
17348;DHT22;8791;50.876;4.342;2022-09-09T05:40:54;16.20;99.90
17348;DHT22;8791;50.876;4.342;2022-09-09T05:43:22;16.20;99.90
17348;DHT22;8791;50.876;4.342;2022-09-09T05:45:59;16.30;99.90
17348;DHT22;8791;50.876;4.342;2022-09-09T05:48:28;16.30;99.90
17348;DHT22;8791;50.876;4.342;2022-09-09T05:50:56;16.30;99.90
17348;DHT22;8791;50.876;4.342;2022-09-09T05:53:23;16.30;99.90
17348;DHT22;8791;50.876;4.342;2022-09-09T05:55:49;16.40;99.90
17348;DHT22;8791;50.876;4.342;2022-09-09T05:58:17;16.40;99.90
17348;DHT22;8791;50.876;4.342;2022-09-09T06:00:43;16.40;99.90
17348;DHT22;8791;50.876;4.342;2022-09-09T06:03:10;16.20;99.90
17348;DHT22;8791;50.876;4.342;2022-09-09T06:05:38;16.20;99.90
17348;DHT22;8791;50.876;4.342;2022-09-09T06:08:06;16.20;99.90
17348;DHT22;8791;50.876;4.342;2022-09-09T06:10:33;16.30;99.90
17348;DHT22;8791;50.876;4.342;2022-09-09T06:13:00;16.40;99.90
17348;DHT22;8791;50.876;4.342;2022-09-09T06:15:26;16.50;99.90
17348;DHT22;8791;50.876;4.342;2022-09-09T06:17:56;16.50;99.90
17348;DHT22;8791;50.876;4.342;2022-09-09T06:20:22;16.80;99.90
17348;DHT22;8791;50.876;4.342;2022-09-09T06:22:50;16.70;99.90
17348;DHT22;8791;50.876;4.342;2022-09-09T06:25:18;16.70;99.90
17348;DHT22;8791;50.876;4.342;2022-09-09T06:27:48;16.80;99.90
17348;DHT22;8791;50.876;4.342;2022-09-09T06:30:16;16.70;99.90
17348;DHT22;8791;50.876;4.342;2022-09-09T06:32:43;16.80;99.90
17348;DHT22;8791;50.876;4.342;2022-09-09T06:35:10;16.90;99.90
17348;DHT22;8791;50.876;4.342;2022-09-09T06:37:37;16.90;99.90
17348;DHT22;8791;50.876;4.342;2022-09-09T06:40:05;16.90;99.90
17348;DHT22;8791;50.876;4.342;2022-09-09T06:42:33;16.90;99.90
17348;DHT22;8791;50.876;4.342;2022-09-09T06:45:00;16.90;99.90
17348;DHT22;8791;50.876;4.342;2022-09-09T06:47:28;16.90;99.90
17348;DHT22;8791;50.876;4.342;2022-09-09T06:49:55;16.80;99.90
17348;DHT22;8791;50.876;4.342;2022-09-09T06:52:22;16.80;99.90
17348;DHT22;8791;50.876;4.342;2022-09-09T06:54:50;16.70;99.90
17348;DHT22;8791;50.876;4.342;2022-09-09T06:57:16;16.70;99.90
17348;DHT22;8791;50.876;4.342;2022-09-09T06:59:45;16.70;99.90
17348;DHT22;8791;50.876;4.342;2022-09-09T07:02:11;16.70;99.90
17348;DHT22;8791;50.876;4.342;2022-09-09T07:04:38;16.80;99.90
17348;DHT22;8791;50.876;4.342;2022-09-09T07:07:05;16.80;99.90
17348;DHT22;8791;50.876;4.342;2022-09-09T07:09:33;16.90;99.90
17348;DHT22;8791;50.876;4.342;2022-09-09T07:12:00;16.80;99.90
17348;DHT22;8791;50.876;4.342;2022-09-09T07:14:27;17.00;99.90
17348;DHT22;8791;50.876;4.342;2022-09-09T07:16:55;17.10;99.90
17348;DHT22;8791;50.876;4.342;2022-09-09T07:19:22;17.20;99.90
17348;DHT22;8791;50.876;4.342;2022-09-09T07:21:49;17.20;99.90
17348;DHT22;8791;50.876;4.342;2022-09-09T07:24:16;17.10;99.90
17348;DHT22;8791;50.876;4.342;2022-09-09T07:26:43;17.10;99.90
17348;DHT22;8791;50.876;4.342;2022-09-09T07:29:11;17.00;99.90
17348;DHT22;8791;50.876;4.342;2022-09-09T07:31:39;17.00;99.90
17348;DHT22;8791;50.876;4.342;2022-09-09T07:34:08;17.10;99.90
17348;DHT22;8791;50.876;4.342;2022-09-09T07:36:36;17.30;99.90
17348;DHT22;8791;50.876;4.342;2022-09-09T07:39:05;17.10;99.90
17348;DHT22;8791;50.876;4.342;2022-09-09T07:41:34;17.00;99.90
17348;DHT22;8791;50.876;4.342;2022-09-09T07:44:05;16.90;99.90
17348;DHT22;8791;50.876;4.342;2022-09-09T07:46:32;16.90;99.90
17348;DHT22;8791;50.876;4.342;2022-09-09T07:48:59;16.90;99.90
17348;DHT22;8791;50.876;4.342;2022-09-09T07:51:30;17.00;99.90
17348;DHT22;8791;50.876;4.342;2022-09-09T07:53:58;17.10;99.90
17348;DHT22;8791;50.876;4.342;2022-09-09T07:56:28;17.30;99.90
17348;DHT22;8791;50.876;4.342;2022-09-09T07:58:56;17.30;99.90
17348;DHT22;8791;50.876;4.342;2022-09-09T08:01:26;17.30;99.90
17348;DHT22;8791;50.876;4.342;2022-09-09T08:03:55;17.30;99.90
17348;DHT22;8791;50.876;4.342;2022-09-09T08:06:24;17.30;99.90
17348;DHT22;8791;50.876;4.342;2022-09-09T08:08:53;17.30;99.90
17348;DHT22;8791;50.876;4.342;2022-09-09T08:11:22;17.40;99.90
17348;DHT22;8791;50.876;4.342;2022-09-09T08:13:49;17.30;99.90
17348;DHT22;8791;50.876;4.342;2022-09-09T08:16:18;17.40;99.90
17348;DHT22;8791;50.876;4.342;2022-09-09T08:18:47;17.50;99.90
17348;DHT22;8791;50.876;4.342;2022-09-09T08:21:16;17.70;99.90
17348;DHT22;8791;50.876;4.342;2022-09-09T08:23:44;17.80;99.90
17348;DHT22;8791;50.876;4.342;2022-09-09T08:26:15;17.70;99.90
17348;DHT22;8791;50.876;4.342;2022-09-09T08:28:45;17.60;99.90
17348;DHT22;8791;50.876;4.342;2022-09-09T08:31:13;17.50;99.90
17348;DHT22;8791;50.876;4.342;2022-09-09T08:33:40;17.60;99.90
17348;DHT22;8791;50.876;4.342;2022-09-09T08:36:10;17.60;99.90
17348;DHT22;8791;50.876;4.342;2022-09-09T08:38:37;17.60;99.90
17348;DHT22;8791;50.876;4.342;2022-09-09T08:44:02;17.60;99.90
17348;DHT22;8791;50.876;4.342;2022-09-09T08:46:43;17.60;99.90
17348;DHT22;8791;50.876;4.342;2022-09-09T08:49:35;17.60;99.90
17348;DHT22;8791;50.876;4.342;2022-09-09T08:52:12;17.40;99.90
17348;DHT22;8791;50.876;4.342;2022-09-09T08:54:41;17.20;99.90
17348;DHT22;8791;50.876;4.342;2022-09-09T08:57:13;17.20;99.90
17348;DHT22;8791;50.876;4.342;2022-09-09T08:59:42;17.20;99.90
17348;DHT22;8791;50.876;4.342;2022-09-09T09:02:16;17.10;99.90
17348;DHT22;8791;50.876;4.342;2022-09-09T09:04:56;17.10;99.90
17348;DHT22;8791;50.876;4.342;2022-09-09T09:07:34;17.00;99.90
17348;DHT22;8791;50.876;4.342;2022-09-09T09:10:10;17.00;99.90
17348;DHT22;8791;50.876;4.342;2022-09-09T09:12:41;17.00;99.90
17348;DHT22;8791;50.876;4.342;2022-09-09T09:15:16;16.90;99.90
17348;DHT22;8791;50.876;4.342;2022-09-09T09:17:44;17.10;99.90
17348;DHT22;8791;50.876;4.342;2022-09-09T09:20:12;17.10;99.90
17348;DHT22;8791;50.876;4.342;2022-09-09T09:22:47;17.20;99.90
17348;DHT22;8791;50.876;4.342;2022-09-09T09:25:17;17.20;99.90
17348;DHT22;8791;50.876;4.342;2022-09-09T09:27:49;17.10;99.90
17348;DHT22;8791;50.876;4.342;2022-09-09T09:30:25;17.20;99.90
17348;DHT22;8791;50.876;4.342;2022-09-09T09:32:55;17.10;99.90
17348;DHT22;8791;50.876;4.342;2022-09-09T09:35:22;17.00;99.90
17348;DHT22;8791;50.876;4.342;2022-09-09T09:37:50;17.10;99.90
17348;DHT22;8791;50.876;4.342;2022-09-09T09:40:18;17.00;99.90
17348;DHT22;8791;50.876;4.342;2022-09-09T09:42:49;17.10;99.90
17348;DHT22;8791;50.876;4.342;2022-09-09T09:45:27;17.10;99.90
17348;DHT22;8791;50.876;4.342;2022-09-09T09:47:59;17.20;99.90
17348;DHT22;8791;50.876;4.342;2022-09-09T09:50:27;17.10;99.90
17348;DHT22;8791;50.876;4.342;2022-09-09T09:52:56;17.10;99.90
17348;DHT22;8791;50.876;4.342;2022-09-09T09:55:24;17.20;99.90
17348;DHT22;8791;50.876;4.342;2022-09-09T09:57:52;17.20;99.90
17348;DHT22;8791;50.876;4.342;2022-09-09T10:00:21;17.30;99.90
17348;DHT22;8791;50.876;4.342;2022-09-09T10:02:50;17.20;99.90
17348;DHT22;8791;50.876;4.342;2022-09-09T10:05:20;17.20;99.90
17348;DHT22;8791;50.876;4.342;2022-09-09T10:07:47;17.20;99.90
17348;DHT22;8791;50.876;4.342;2022-09-09T10:10:38;17.20;99.90
17348;DHT22;8791;50.876;4.342;2022-09-09T10:13:11;17.30;99.90
17348;DHT22;8791;50.876;4.342;2022-09-09T10:15:44;17.30;99.90
17348;DHT22;8791;50.876;4.342;2022-09-09T10:18:26;17.60;99.90
17348;DHT22;8791;50.876;4.342;2022-09-09T10:21:06;17.50;99.90
17348;DHT22;8791;50.876;4.342;2022-09-09T10:23:47;17.60;99.90
17348;DHT22;8791;50.876;4.342;2022-09-09T10:26:32;17.60;99.90
17348;DHT22;8791;50.876;4.342;2022-09-09T10:29:15;17.80;99.90
17348;DHT22;8791;50.876;4.342;2022-09-09T10:31:51;17.80;99.90
17348;DHT22;8791;50.876;4.342;2022-09-09T10:34:39;18.00;99.90
17348;DHT22;8791;50.876;4.342;2022-09-09T10:37:16;18.20;99.90
17348;DHT22;8791;50.876;4.342;2022-09-09T10:39:49;18.20;99.90
17348;DHT22;8791;50.876;4.342;2022-09-09T10:42:29;18.40;99.90
17348;DHT22;8791;50.876;4.342;2022-09-09T10:45:07;18.50;99.90
17348;DHT22;8791;50.876;4.342;2022-09-09T10:47:53;18.60;99.90
17348;DHT22;8791;50.876;4.342;2022-09-09T10:50:32;18.60;99.90
17348;DHT22;8791;50.876;4.342;2022-09-09T10:53:10;18.90;99.90
17348;DHT22;8791;50.876;4.342;2022-09-09T10:55:42;19.00;99.90
17348;DHT22;8791;50.876;4.342;2022-09-09T10:58:13;18.90;99.90
17348;DHT22;8791;50.876;4.342;2022-09-09T11:00:45;18.80;99.90
17348;DHT22;8791;50.876;4.342;2022-09-09T11:03:18;18.90;99.90
17348;DHT22;8791;50.876;4.342;2022-09-09T11:05:50;19.00;99.90
17348;DHT22;8791;50.876;4.342;2022-09-09T11:08:19;19.00;99.90
17348;DHT22;8791;50.876;4.342;2022-09-09T11:10:51;19.00;99.90
17348;DHT22;8791;50.876;4.342;2022-09-09T11:13:26;19.10;99.90
17348;DHT22;8791;50.876;4.342;2022-09-09T11:16:00;19.10;99.90
17348;DHT22;8791;50.876;4.342;2022-09-09T11:18:29;18.80;99.90
17348;DHT22;8791;50.876;4.342;2022-09-09T11:21:01;18.70;99.90
17348;DHT22;8791;50.876;4.342;2022-09-09T11:23:37;18.80;99.90
17348;DHT22;8791;50.876;4.342;2022-09-09T11:26:07;19.00;99.90
17348;DHT22;8791;50.876;4.342;2022-09-09T11:28:46;19.00;99.90
17348;DHT22;8791;50.876;4.342;2022-09-09T11:31:39;18.70;99.90
17348;DHT22;8791;50.876;4.342;2022-09-09T11:34:27;18.90;99.90
17348;DHT22;8791;50.876;4.342;2022-09-09T11:37:12;18.70;99.90
17348;DHT22;8791;50.876;4.342;2022-09-09T11:40:04;18.90;99.90
17348;DHT22;8791;50.876;4.342;2022-09-09T11:42:34;19.10;99.90
17348;DHT22;8791;50.876;4.342;2022-09-09T11:45:09;19.10;99.90
17348;DHT22;8791;50.876;4.342;2022-09-09T11:47:36;18.80;99.90
17348;DHT22;8791;50.876;4.342;2022-09-09T11:50:22;18.80;99.90
17348;DHT22;8791;50.876;4.342;2022-09-09T11:53:05;18.90;99.90
17348;DHT22;8791;50.876;4.342;2022-09-09T11:55:41;18.90;99.90
17348;DHT22;8791;50.876;4.342;2022-09-09T11:58:16;18.70;99.90
17348;DHT22;8791;50.876;4.342;2022-09-09T12:00:45;19.00;99.90
17348;DHT22;8791;50.876;4.342;2022-09-09T12:03:39;18.90;99.90
17348;DHT22;8791;50.876;4.342;2022-09-09T12:06:13;18.80;99.90
17348;DHT22;8791;50.876;4.342;2022-09-09T12:08:45;18.90;99.90
17348;DHT22;8791;50.876;4.342;2022-09-09T12:11:24;18.90;99.90
17348;DHT22;8791;50.876;4.342;2022-09-09T12:13:55;18.80;99.90
17348;DHT22;8791;50.876;4.342;2022-09-09T12:16:30;18.80;99.90
17348;DHT22;8791;50.876;4.342;2022-09-09T12:19:15;18.70;99.90
17348;DHT22;8791;50.876;4.342;2022-09-09T12:21:49;18.50;99.90
17348;DHT22;8791;50.876;4.342;2022-09-09T12:24:25;18.50;99.90
17348;DHT22;8791;50.876;4.342;2022-09-09T12:26:59;18.70;99.90
17348;DHT22;8791;50.876;4.342;2022-09-09T12:29:34;18.80;99.90
17348;DHT22;8791;50.876;4.342;2022-09-09T12:32:07;19.00;99.90
17348;DHT22;8791;50.876;4.342;2022-09-09T12:34:39;19.10;99.90
17348;DHT22;8791;50.876;4.342;2022-09-09T12:37:16;19.20;99.90
17348;DHT22;8791;50.876;4.342;2022-09-09T12:39:51;19.20;99.90
17348;DHT22;8791;50.876;4.342;2022-09-09T12:42:20;19.30;99.90
17348;DHT22;8791;50.876;4.342;2022-09-09T12:44:55;19.40;99.90
17348;DHT22;8791;50.876;4.342;2022-09-09T12:47:26;19.50;99.90
17348;DHT22;8791;50.876;4.342;2022-09-09T12:49:54;19.50;99.90
17348;DHT22;8791;50.876;4.342;2022-09-09T12:52:26;19.60;99.90
17348;DHT22;8791;50.876;4.342;2022-09-09T12:54:57;19.60;99.90
17348;DHT22;8791;50.876;4.342;2022-09-09T12:57:26;19.70;99.90
17348;DHT22;8791;50.876;4.342;2022-09-09T13:00:05;19.90;99.90
17348;DHT22;8791;50.876;4.342;2022-09-09T13:02:34;19.90;99.90
17348;DHT22;8791;50.876;4.342;2022-09-09T13:05:12;19.80;99.90
17348;DHT22;8791;50.876;4.342;2022-09-09T13:07:40;19.60;99.90
17348;DHT22;8791;50.876;4.342;2022-09-09T13:10:12;19.60;99.90
17348;DHT22;8791;50.876;4.342;2022-09-09T13:12:40;19.50;99.90
17348;DHT22;8791;50.876;4.342;2022-09-09T13:15:16;19.50;99.90
17348;DHT22;8791;50.876;4.342;2022-09-09T13:17:52;19.70;99.90
17348;DHT22;8791;50.876;4.342;2022-09-09T13:20:21;19.60;99.90
17348;DHT22;8791;50.876;4.342;2022-09-09T13:22:49;19.70;99.90
17348;DHT22;8791;50.876;4.342;2022-09-09T13:25:22;19.80;99.90
17348;DHT22;8791;50.876;4.342;2022-09-09T13:28:01;19.90;99.90
17348;DHT22;8791;50.876;4.342;2022-09-09T13:30:30;20.10;99.90
17348;DHT22;8791;50.876;4.342;2022-09-09T13:33:03;20.10;99.90
17348;DHT22;8791;50.876;4.342;2022-09-09T13:35:31;20.20;99.90
17348;DHT22;8791;50.876;4.342;2022-09-09T13:37:59;20.40;99.90
17348;DHT22;8791;50.876;4.342;2022-09-09T13:40:27;20.60;99.90
17348;DHT22;8791;50.876;4.342;2022-09-09T13:42:56;20.60;99.90
17348;DHT22;8791;50.876;4.342;2022-09-09T13:45:25;20.30;99.90
17348;DHT22;8791;50.876;4.342;2022-09-09T13:47:53;20.30;99.90
17348;DHT22;8791;50.876;4.342;2022-09-09T13:50:22;20.60;99.90
17348;DHT22;8791;50.876;4.342;2022-09-09T13:52:51;20.70;99.90
17348;DHT22;8791;50.876;4.342;2022-09-09T13:55:18;20.80;99.90
17348;DHT22;8791;50.876;4.342;2022-09-09T13:57:52;21.00;99.90
17348;DHT22;8791;50.876;4.342;2022-09-09T14:00:20;21.10;99.90
17348;DHT22;8791;50.876;4.342;2022-09-09T14:02:47;20.90;99.90
17348;DHT22;8791;50.876;4.342;2022-09-09T14:05:14;21.00;99.90
17348;DHT22;8791;50.876;4.342;2022-09-09T14:07:42;21.30;99.90
17348;DHT22;8791;50.876;4.342;2022-09-09T14:10:09;21.30;99.90
17348;DHT22;8791;50.876;4.342;2022-09-09T14:12:37;21.20;99.90
17348;DHT22;8791;50.876;4.342;2022-09-09T14:15:07;21.20;99.90
17348;DHT22;8791;50.876;4.342;2022-09-09T14:17:35;21.40;99.90
17348;DHT22;8791;50.876;4.342;2022-09-09T14:20:03;21.10;99.90
17348;DHT22;8791;50.876;4.342;2022-09-09T14:22:31;21.30;99.90
17348;DHT22;8791;50.876;4.342;2022-09-09T14:24:58;21.00;99.90
17348;DHT22;8791;50.876;4.342;2022-09-09T14:27:25;20.80;99.90
17348;DHT22;8791;50.876;4.342;2022-09-09T14:29:52;21.00;99.90
17348;DHT22;8791;50.876;4.342;2022-09-09T14:32:21;21.10;99.90
17348;DHT22;8791;50.876;4.342;2022-09-09T14:34:48;21.10;99.90
17348;DHT22;8791;50.876;4.342;2022-09-09T14:37:15;21.00;99.90
17348;DHT22;8791;50.876;4.342;2022-09-09T14:39:43;20.90;99.90
17348;DHT22;8791;50.876;4.342;2022-09-09T14:42:09;20.60;99.90
17348;DHT22;8791;50.876;4.342;2022-09-09T14:44:37;20.70;99.90
17348;DHT22;8791;50.876;4.342;2022-09-09T14:47:04;20.90;99.90
17348;DHT22;8791;50.876;4.342;2022-09-09T14:49:32;20.70;99.90
17348;DHT22;8791;50.876;4.342;2022-09-09T14:51:59;20.90;99.90
17348;DHT22;8791;50.876;4.342;2022-09-09T14:54:26;20.90;99.90
17348;DHT22;8791;50.876;4.342;2022-09-09T14:56:54;21.00;99.90
17348;DHT22;8791;50.876;4.342;2022-09-09T14:59:22;21.00;99.90
17348;DHT22;8791;50.876;4.342;2022-09-09T15:01:49;20.80;99.90
17348;DHT22;8791;50.876;4.342;2022-09-09T15:04:17;20.60;99.90
17348;DHT22;8791;50.876;4.342;2022-09-09T15:06:46;20.50;99.90
17348;DHT22;8791;50.876;4.342;2022-09-09T15:09:14;20.50;99.90
17348;DHT22;8791;50.876;4.342;2022-09-09T15:11:41;20.50;99.90
17348;DHT22;8791;50.876;4.342;2022-09-09T15:14:09;20.30;99.90
17348;DHT22;8791;50.876;4.342;2022-09-09T15:16:38;20.20;99.90
17348;DHT22;8791;50.876;4.342;2022-09-09T15:19:05;20.50;99.90
17348;DHT22;8791;50.876;4.342;2022-09-09T15:21:34;20.70;99.90
17348;DHT22;8791;50.876;4.342;2022-09-09T15:24:04;21.00;99.90
17348;DHT22;8791;50.876;4.342;2022-09-09T15:26:32;21.20;99.90
17348;DHT22;8791;50.876;4.342;2022-09-09T15:29:04;21.10;99.90
17348;DHT22;8791;50.876;4.342;2022-09-09T15:31:32;21.00;99.90
17348;DHT22;8791;50.876;4.342;2022-09-09T15:34:00;20.80;99.90
17348;DHT22;8791;50.876;4.342;2022-09-09T15:36:29;20.60;99.90
17348;DHT22;8791;50.876;4.342;2022-09-09T15:38:57;20.50;99.90
17348;DHT22;8791;50.876;4.342;2022-09-09T15:41:27;20.60;99.90
17348;DHT22;8791;50.876;4.342;2022-09-09T15:43:55;20.80;99.90
17348;DHT22;8791;50.876;4.342;2022-09-09T15:46:26;20.90;99.90
17348;DHT22;8791;50.876;4.342;2022-09-09T15:48:54;21.00;99.90
17348;DHT22;8791;50.876;4.342;2022-09-09T15:51:22;20.90;99.90
17348;DHT22;8791;50.876;4.342;2022-09-09T15:53:54;20.70;99.90
17348;DHT22;8791;50.876;4.342;2022-09-09T15:56:21;20.70;99.90
17348;DHT22;8791;50.876;4.342;2022-09-09T15:58:49;20.70;99.90
17348;DHT22;8791;50.876;4.342;2022-09-09T16:01:17;20.70;99.90
17348;DHT22;8791;50.876;4.342;2022-09-09T16:03:44;20.80;99.90
17348;DHT22;8791;50.876;4.342;2022-09-09T16:06:13;20.90;99.90
17348;DHT22;8791;50.876;4.342;2022-09-09T16:08:41;20.90;99.90
17348;DHT22;8791;50.876;4.342;2022-09-09T16:11:10;20.80;99.90
17348;DHT22;8791;50.876;4.342;2022-09-09T16:13:39;20.90;99.90